sensor_id;sensor_type;location;lat;lon;timestamp;temperature;humidity
18502;DHT22;68437;52.236;5.710;2023-05-20T00:01:40;11.60;99.90
18502;DHT22;68437;52.236;5.710;2023-05-20T00:04:07;11.50;99.90
18502;DHT22;68437;52.236;5.710;2023-05-20T00:06:34;11.40;99.90
18502;DHT22;68437;52.236;5.710;2023-05-20T00:09:01;11.40;99.90
18502;DHT22;68437;52.236;5.710;2023-05-20T00:11:27;11.30;99.90
18502;DHT22;68437;52.236;5.710;2023-05-20T00:13:54;11.40;99.90
18502;DHT22;68437;52.236;5.710;2023-05-20T00:16:21;11.30;99.90
18502;DHT22;68437;52.236;5.710;2023-05-20T00:18:49;11.30;99.90
18502;DHT22;68437;52.236;5.710;2023-05-20T00:21:16;11.20;99.90
18502;DHT22;68437;52.236;5.710;2023-05-20T00:23:43;11.20;99.90
18502;DHT22;68437;52.236;5.710;2023-05-20T00:26:09;11.20;99.90
18502;DHT22;68437;52.236;5.710;2023-05-20T00:28:36;11.00;99.90
18502;DHT22;68437;52.236;5.710;2023-05-20T00:31:03;11.00;99.90
18502;DHT22;68437;52.236;5.710;2023-05-20T00:33:30;11.00;99.90
18502;DHT22;68437;52.236;5.710;2023-05-20T00:35:58;10.90;99.90
18502;DHT22;68437;52.236;5.710;2023-05-20T00:38:25;10.90;99.90
18502;DHT22;68437;52.236;5.710;2023-05-20T00:40:52;10.90;99.90
18502;DHT22;68437;52.236;5.710;2023-05-20T00:43:19;10.90;99.90
18502;DHT22;68437;52.236;5.710;2023-05-20T00:45:47;10.90;99.90
18502;DHT22;68437;52.236;5.710;2023-05-20T00:48:14;10.90;99.90
18502;DHT22;68437;52.236;5.710;2023-05-20T00:50:40;10.90;99.90
18502;DHT22;68437;52.236;5.710;2023-05-20T00:53:09;10.90;99.90
18502;DHT22;68437;52.236;5.710;2023-05-20T00:55:37;10.80;99.90
18502;DHT22;68437;52.236;5.710;2023-05-20T00:58:05;10.80;99.90
18502;DHT22;68437;52.236;5.710;2023-05-20T01:00:31;10.90;99.90
18502;DHT22;68437;52.236;5.710;2023-05-20T01:02:58;10.90;99.90
18502;DHT22;68437;52.236;5.710;2023-05-20T01:05:26;10.80;99.90
18502;DHT22;68437;52.236;5.710;2023-05-20T01:07:52;10.80;99.90
18502;DHT22;68437;52.236;5.710;2023-05-20T01:10:22;10.80;99.90
18502;DHT22;68437;52.236;5.710;2023-05-20T01:12:53;10.80;99.90
18502;DHT22;68437;52.236;5.710;2023-05-20T01:15:23;10.70;99.90
18502;DHT22;68437;52.236;5.710;2023-05-20T01:17:51;10.80;99.90
18502;DHT22;68437;52.236;5.710;2023-05-20T01:20:22;10.70;99.90
18502;DHT22;68437;52.236;5.710;2023-05-20T01:22:54;10.70;99.90
18502;DHT22;68437;52.236;5.710;2023-05-20T01:25:21;10.70;99.90
18502;DHT22;68437;52.236;5.710;2023-05-20T01:27:49;10.70;99.90
18502;DHT22;68437;52.236;5.710;2023-05-20T01:30:17;10.60;99.90
18502;DHT22;68437;52.236;5.710;2023-05-20T01:32:47;10.60;99.90
18502;DHT22;68437;52.236;5.710;2023-05-20T01:35:16;10.50;99.90
18502;DHT22;68437;52.236;5.710;2023-05-20T01:37:43;10.60;99.90
18502;DHT22;68437;52.236;5.710;2023-05-20T01:40:14;10.50;99.90
18502;DHT22;68437;52.236;5.710;2023-05-20T01:42:42;10.50;99.90
18502;DHT22;68437;52.236;5.710;2023-05-20T01:45:10;10.50;99.90
18502;DHT22;68437;52.236;5.710;2023-05-20T01:47:37;10.50;99.90
18502;DHT22;68437;52.236;5.710;2023-05-20T01:50:06;10.60;99.90
18502;DHT22;68437;52.236;5.710;2023-05-20T01:52:33;10.50;99.90
18502;DHT22;68437;52.236;5.710;2023-05-20T01:55:00;10.50;99.90
18502;DHT22;68437;52.236;5.710;2023-05-20T01:57:28;10.40;99.90
18502;DHT22;68437;52.236;5.710;2023-05-20T01:59:55;10.50;99.90
18502;DHT22;68437;52.236;5.710;2023-05-20T02:02:22;10.50;99.90
18502;DHT22;68437;52.236;5.710;2023-05-20T02:04:50;10.50;99.90
18502;DHT22;68437;52.236;5.710;2023-05-20T02:07:17;10.50;99.90
18502;DHT22;68437;52.236;5.710;2023-05-20T02:09:45;10.50;99.90
18502;DHT22;68437;52.236;5.710;2023-05-20T02:12:12;10.50;99.90
18502;DHT22;68437;52.236;5.710;2023-05-20T02:14:45;10.50;99.90
18502;DHT22;68437;52.236;5.710;2023-05-20T02:17:12;10.40;99.90
18502;DHT22;68437;52.236;5.710;2023-05-20T02:19:41;10.40;99.90
18502;DHT22;68437;52.236;5.710;2023-05-20T02:22:08;10.40;99.90
18502;DHT22;68437;52.236;5.710;2023-05-20T02:24:37;10.40;99.90
18502;DHT22;68437;52.236;5.710;2023-05-20T02:27:05;10.40;99.90
18502;DHT22;68437;52.236;5.710;2023-05-20T02:29:31;10.40;99.90
18502;DHT22;68437;52.236;5.710;2023-05-20T02:32:00;10.40;99.90
18502;DHT22;68437;52.236;5.710;2023-05-20T02:34:27;10.40;99.90
18502;DHT22;68437;52.236;5.710;2023-05-20T02:36:54;10.40;99.90
18502;DHT22;68437;52.236;5.710;2023-05-20T02:39:21;10.30;99.90
18502;DHT22;68437;52.236;5.710;2023-05-20T02:41:48;10.30;99.90
18502;DHT22;68437;52.236;5.710;2023-05-20T02:44:15;10.30;99.90
18502;DHT22;68437;52.236;5.710;2023-05-20T02:46:42;10.30;99.90
18502;DHT22;68437;52.236;5.710;2023-05-20T02:49:10;10.20;99.90
18502;DHT22;68437;52.236;5.710;2023-05-20T02:51:38;10.20;99.90
18502;DHT22;68437;52.236;5.710;2023-05-20T02:54:05;10.20;99.90
18502;DHT22;68437;52.236;5.710;2023-05-20T02:56:32;10.20;99.90
18502;DHT22;68437;52.236;5.710;2023-05-20T02:58:59;10.20;99.90
18502;DHT22;68437;52.236;5.710;2023-05-20T03:01:26;10.20;99.90
18502;DHT22;68437;52.236;5.710;2023-05-20T03:03:53;10.20;99.90
18502;DHT22;68437;52.236;5.710;2023-05-20T03:06:21;10.20;99.90
18502;DHT22;68437;52.236;5.710;2023-05-20T03:08:48;10.10;99.90
18502;DHT22;68437;52.236;5.710;2023-05-20T03:11:15;10.10;99.90
18502;DHT22;68437;52.236;5.710;2023-05-20T03:13:42;10.10;99.90
18502;DHT22;68437;52.236;5.710;2023-05-20T03:16:09;10.10;99.90
18502;DHT22;68437;52.236;5.710;2023-05-20T03:18:37;10.10;99.90
18502;DHT22;68437;52.236;5.710;2023-05-20T03:21:04;10.10;99.90
18502;DHT22;68437;52.236;5.710;2023-05-20T03:23:32;10.10;99.90
18502;DHT22;68437;52.236;5.710;2023-05-20T03:25:59;10.10;99.90
18502;DHT22;68437;52.236;5.710;2023-05-20T03:28:26;10.10;99.90
18502;DHT22;68437;52.236;5.710;2023-05-20T03:30:53;10.20;99.90
18502;DHT22;68437;52.236;5.710;2023-05-20T03:33:19;10.20;99.90
18502;DHT22;68437;52.236;5.710;2023-05-20T03:35:47;10.20;99.90
18502;DHT22;68437;52.236;5.710;2023-05-20T03:38:14;10.20;99.90
18502;DHT22;68437;52.236;5.710;2023-05-20T03:40:42;10.10;99.90
18502;DHT22;68437;52.236;5.710;2023-05-20T03:43:08;10.20;99.90
18502;DHT22;68437;52.236;5.710;2023-05-20T03:45:35;10.10;99.90
18502;DHT22;68437;52.236;5.710;2023-05-20T03:48:02;10.10;99.90
18502;DHT22;68437;52.236;5.710;2023-05-20T03:50:29;10.10;99.90
18502;DHT22;68437;52.236;5.710;2023-05-20T03:52:56;10.20;99.90
18502;DHT22;68437;52.236;5.710;2023-05-20T03:55:23;10.20;99.90
18502;DHT22;68437;52.236;5.710;2023-05-20T03:57:51;10.20;99.90
18502;DHT22;68437;52.236;5.710;2023-05-20T04:00:18;10.20;99.90
18502;DHT22;68437;52.236;5.710;2023-05-20T04:02:45;10.20;99.90
18502;DHT22;68437;52.236;5.710;2023-05-20T04:05:12;10.10;99.90
18502;DHT22;68437;52.236;5.710;2023-05-20T04:07:39;10.10;99.90
18502;DHT22;68437;52.236;5.710;2023-05-20T04:10:07;10.20;99.90
18502;DHT22;68437;52.236;5.710;2023-05-20T04:12:34;10.20;99.90
18502;DHT22;68437;52.236;5.710;2023-05-20T04:15:05;10.10;99.90
18502;DHT22;68437;52.236;5.710;2023-05-20T04:17:32;10.20;99.90
18502;DHT22;68437;52.236;5.710;2023-05-20T04:20:02;10.20;99.90
18502;DHT22;68437;52.236;5.710;2023-05-20T04:22:31;10.20;99.90
18502;DHT22;68437;52.236;5.710;2023-05-20T04:24:58;10.30;99.90
18502;DHT22;68437;52.236;5.710;2023-05-20T04:27:25;10.40;99.90
18502;DHT22;68437;52.236;5.710;2023-05-20T04:29:53;10.50;99.90
18502;DHT22;68437;52.236;5.710;2023-05-20T04:32:21;11.00;99.90
18502;DHT22;68437;52.236;5.710;2023-05-20T04:34:48;11.00;99.90
18502;DHT22;68437;52.236;5.710;2023-05-20T04:37:15;10.90;99.90
18502;DHT22;68437;52.236;5.710;2023-05-20T04:39:42;10.70;99.90
18502;DHT22;68437;52.236;5.710;2023-05-20T04:42:09;10.70;99.90
18502;DHT22;68437;52.236;5.710;2023-05-20T04:44:35;10.70;99.90
18502;DHT22;68437;52.236;5.710;2023-05-20T04:47:02;10.70;99.90
18502;DHT22;68437;52.236;5.710;2023-05-20T04:49:33;10.70;99.90
18502;DHT22;68437;52.236;5.710;2023-05-20T04:52:01;10.70;99.90
18502;DHT22;68437;52.236;5.710;2023-05-20T04:54:28;10.80;99.90
18502;DHT22;68437;52.236;5.710;2023-05-20T04:56:55;10.80;99.90
18502;DHT22;68437;52.236;5.710;2023-05-20T04:59:22;10.90;99.90
18502;DHT22;68437;52.236;5.710;2023-05-20T05:01:48;10.90;99.90
18502;DHT22;68437;52.236;5.710;2023-05-20T05:04:15;11.00;99.90
18502;DHT22;68437;52.236;5.710;2023-05-20T05:06:44;11.00;99.90
18502;DHT22;68437;52.236;5.710;2023-05-20T05:09:10;11.10;99.90
18502;DHT22;68437;52.236;5.710;2023-05-20T05:11:38;11.30;99.90
18502;DHT22;68437;52.236;5.710;2023-05-20T05:14:04;11.30;99.90
18502;DHT22;68437;52.236;5.710;2023-05-20T05:16:31;11.40;99.90
18502;DHT22;68437;52.236;5.710;2023-05-20T05:18:58;11.60;99.90
18502;DHT22;68437;52.236;5.710;2023-05-20T05:21:25;11.60;99.90
18502;DHT22;68437;52.236;5.710;2023-05-20T05:23:56;11.70;99.90
18502;DHT22;68437;52.236;5.710;2023-05-20T05:26:23;11.90;99.90
18502;DHT22;68437;52.236;5.710;2023-05-20T05:28:52;11.90;99.90
18502;DHT22;68437;52.236;5.710;2023-05-20T05:31:18;12.10;99.90
18502;DHT22;68437;52.236;5.710;2023-05-20T05:33:45;12.20;99.90
18502;DHT22;68437;52.236;5.710;2023-05-20T05:36:12;12.20;99.90
18502;DHT22;68437;52.236;5.710;2023-05-20T05:38:39;12.30;99.90
18502;DHT22;68437;52.236;5.710;2023-05-20T05:41:07;12.40;99.90
18502;DHT22;68437;52.236;5.710;2023-05-20T05:43:34;12.60;99.90
18502;DHT22;68437;52.236;5.710;2023-05-20T05:46:01;12.70;99.90
18502;DHT22;68437;52.236;5.710;2023-05-20T05:48:27;12.80;99.90
18502;DHT22;68437;52.236;5.710;2023-05-20T05:50:54;12.90;99.90
18502;DHT22;68437;52.236;5.710;2023-05-20T05:53:21;12.90;99.90
18502;DHT22;68437;52.236;5.710;2023-05-20T05:55:48;13.00;99.90
18502;DHT22;68437;52.236;5.710;2023-05-20T05:58:16;13.10;99.90
18502;DHT22;68437;52.236;5.710;2023-05-20T06:00:43;13.30;99.90
18502;DHT22;68437;52.236;5.710;2023-05-20T06:03:12;13.30;99.90
18502;DHT22;68437;52.236;5.710;2023-05-20T06:05:39;13.40;99.90
18502;DHT22;68437;52.236;5.710;2023-05-20T06:08:06;13.50;99.90
18502;DHT22;68437;52.236;5.710;2023-05-20T06:10:33;13.70;99.90
18502;DHT22;68437;52.236;5.710;2023-05-20T06:13:00;13.70;99.90
18502;DHT22;68437;52.236;5.710;2023-05-20T06:15:28;13.80;99.90
18502;DHT22;68437;52.236;5.710;2023-05-20T06:17:55;13.90;99.90
18502;DHT22;68437;52.236;5.710;2023-05-20T06:20:22;13.90;99.90
18502;DHT22;68437;52.236;5.710;2023-05-20T06:22:48;14.00;99.90
18502;DHT22;68437;52.236;5.710;2023-05-20T06:25:15;14.00;99.90
18502;DHT22;68437;52.236;5.710;2023-05-20T06:27:42;14.10;99.90
18502;DHT22;68437;52.236;5.710;2023-05-20T06:30:10;14.10;99.90
18502;DHT22;68437;52.236;5.710;2023-05-20T06:32:38;14.30;99.90
18502;DHT22;68437;52.236;5.710;2023-05-20T06:35:05;14.40;99.90
18502;DHT22;68437;52.236;5.710;2023-05-20T06:37:32;14.40;99.90
18502;DHT22;68437;52.236;5.710;2023-05-20T06:39:59;14.50;99.90
18502;DHT22;68437;52.236;5.710;2023-05-20T06:42:26;14.60;99.90
18502;DHT22;68437;52.236;5.710;2023-05-20T06:44:53;14.70;99.90
18502;DHT22;68437;52.236;5.710;2023-05-20T06:47:20;14.90;99.90
18502;DHT22;68437;52.236;5.710;2023-05-20T06:49:48;14.90;99.90
18502;DHT22;68437;52.236;5.710;2023-05-20T06:52:15;14.90;99.90
18502;DHT22;68437;52.236;5.710;2023-05-20T06:54:42;14.90;99.90
18502;DHT22;68437;52.236;5.710;2023-05-20T06:57:09;15.00;99.90
18502;DHT22;68437;52.236;5.710;2023-05-20T06:59:36;15.00;99.90
18502;DHT22;68437;52.236;5.710;2023-05-20T07:02:03;15.10;99.90
18502;DHT22;68437;52.236;5.710;2023-05-20T07:04:30;15.10;99.90
18502;DHT22;68437;52.236;5.710;2023-05-20T07:06:58;15.10;99.90
18502;DHT22;68437;52.236;5.710;2023-05-20T07:09:25;15.20;99.90
18502;DHT22;68437;52.236;5.710;2023-05-20T07:11:52;15.30;99.90
18502;DHT22;68437;52.236;5.710;2023-05-20T07:14:19;15.40;99.90
18502;DHT22;68437;52.236;5.710;2023-05-20T07:16:46;15.50;99.90
18502;DHT22;68437;52.236;5.710;2023-05-20T07:19:12;15.60;99.90
18502;DHT22;68437;52.236;5.710;2023-05-20T07:21:39;15.70;99.90
18502;DHT22;68437;52.236;5.710;2023-05-20T07:24:08;15.80;99.90
18502;DHT22;68437;52.236;5.710;2023-05-20T07:26:34;15.90;99.90
18502;DHT22;68437;52.236;5.710;2023-05-20T07:29:02;16.00;99.90
18502;DHT22;68437;52.236;5.710;2023-05-20T07:31:29;16.10;99.90
18502;DHT22;68437;52.236;5.710;2023-05-20T07:33:56;16.20;99.90
18502;DHT22;68437;52.236;5.710;2023-05-20T07:36:24;16.20;99.90
18502;DHT22;68437;52.236;5.710;2023-05-20T07:38:51;16.40;99.90
18502;DHT22;68437;52.236;5.710;2023-05-20T07:41:19;16.40;99.90
18502;DHT22;68437;52.236;5.710;2023-05-20T07:43:47;16.40;99.90
18502;DHT22;68437;52.236;5.710;2023-05-20T07:46:13;16.50;99.90
18502;DHT22;68437;52.236;5.710;2023-05-20T07:48:41;16.60;99.90
18502;DHT22;68437;52.236;5.710;2023-05-20T07:51:09;16.70;99.90
18502;DHT22;68437;52.236;5.710;2023-05-20T07:53:36;16.80;99.90
18502;DHT22;68437;52.236;5.710;2023-05-20T07:56:03;16.80;99.90
18502;DHT22;68437;52.236;5.710;2023-05-20T07:58:31;16.90;99.90
18502;DHT22;68437;52.236;5.710;2023-05-20T08:00:58;17.00;99.90
18502;DHT22;68437;52.236;5.710;2023-05-20T08:03:25;17.00;99.90
18502;DHT22;68437;52.236;5.710;2023-05-20T08:05:52;17.00;99.90
18502;DHT22;68437;52.236;5.710;2023-05-20T08:08:19;17.00;99.90
18502;DHT22;68437;52.236;5.710;2023-05-20T08:10:46;17.10;99.90
18502;DHT22;68437;52.236;5.710;2023-05-20T08:13:13;17.20;99.90
18502;DHT22;68437;52.236;5.710;2023-05-20T08:15:41;17.30;99.90
18502;DHT22;68437;52.236;5.710;2023-05-20T08:18:08;17.50;99.90
18502;DHT22;68437;52.236;5.710;2023-05-20T08:20:35;17.50;99.90
18502;DHT22;68437;52.236;5.710;2023-05-20T08:23:02;17.50;99.90
18502;DHT22;68437;52.236;5.710;2023-05-20T08:25:28;17.50;99.90
18502;DHT22;68437;52.236;5.710;2023-05-20T08:27:55;17.60;99.90
18502;DHT22;68437;52.236;5.710;2023-05-20T08:30:22;17.70;99.90
18502;DHT22;68437;52.236;5.710;2023-05-20T08:32:50;17.80;99.90
18502;DHT22;68437;52.236;5.710;2023-05-20T08:35:17;18.00;99.90
18502;DHT22;68437;52.236;5.710;2023-05-20T08:37:44;18.00;99.90
18502;DHT22;68437;52.236;5.710;2023-05-20T08:40:12;17.90;99.90
18502;DHT22;68437;52.236;5.710;2023-05-20T08:42:41;18.00;99.90
18502;DHT22;68437;52.236;5.710;2023-05-20T08:45:10;18.20;99.90
18502;DHT22;68437;52.236;5.710;2023-05-20T08:47:40;18.40;99.90
18502;DHT22;68437;52.236;5.710;2023-05-20T08:50:10;18.50;99.90
18502;DHT22;68437;52.236;5.710;2023-05-20T08:52:42;18.60;99.90
18502;DHT22;68437;52.236;5.710;2023-05-20T08:55:13;18.60;99.90
18502;DHT22;68437;52.236;5.710;2023-05-20T08:57:41;18.70;99.90
18502;DHT22;68437;52.236;5.710;2023-05-20T09:00:11;18.70;99.90
18502;DHT22;68437;52.236;5.710;2023-05-20T09:02:41;18.50;99.90
18502;DHT22;68437;52.236;5.710;2023-05-20T09:05:11;18.60;99.90
18502;DHT22;68437;52.236;5.710;2023-05-20T09:07:38;18.70;99.90
18502;DHT22;68437;52.236;5.710;2023-05-20T09:10:07;18.80;99.90
18502;DHT22;68437;52.236;5.710;2023-05-20T09:12:35;18.70;99.90
18502;DHT22;68437;52.236;5.710;2023-05-20T09:15:02;18.80;99.90
18502;DHT22;68437;52.236;5.710;2023-05-20T09:17:29;18.80;99.90
18502;DHT22;68437;52.236;5.710;2023-05-20T09:19:56;18.80;99.90
18502;DHT22;68437;52.236;5.710;2023-05-20T09:22:28;18.60;99.90
18502;DHT22;68437;52.236;5.710;2023-05-20T09:24:54;18.70;99.90
18502;DHT22;68437;52.236;5.710;2023-05-20T09:27:21;18.70;99.90
18502;DHT22;68437;52.236;5.710;2023-05-20T09:29:50;18.90;99.90
18502;DHT22;68437;52.236;5.710;2023-05-20T09:32:20;19.00;99.90
18502;DHT22;68437;52.236;5.710;2023-05-20T09:34:48;19.00;99.90
18502;DHT22;68437;52.236;5.710;2023-05-20T09:37:17;18.90;99.90
18502;DHT22;68437;52.236;5.710;2023-05-20T09:39:54;18.90;99.90
18502;DHT22;68437;52.236;5.710;2023-05-20T09:42:25;18.80;99.90
18502;DHT22;68437;52.236;5.710;2023-05-20T09:44:54;18.60;99.90
18502;DHT22;68437;52.236;5.710;2023-05-20T09:47:25;18.70;99.90
18502;DHT22;68437;52.236;5.710;2023-05-20T09:49:52;18.90;99.90
18502;DHT22;68437;52.236;5.710;2023-05-20T09:52:19;19.20;99.90
18502;DHT22;68437;52.236;5.710;2023-05-20T09:54:48;19.40;99.90
18502;DHT22;68437;52.236;5.710;2023-05-20T09:57:16;19.80;99.90
18502;DHT22;68437;52.236;5.710;2023-05-20T09:59:46;20.20;99.90
18502;DHT22;68437;52.236;5.710;2023-05-20T10:02:13;20.20;99.90
18502;DHT22;68437;52.236;5.710;2023-05-20T10:04:43;20.00;99.90
18502;DHT22;68437;52.236;5.710;2023-05-20T10:07:34;19.80;99.90
18502;DHT22;68437;52.236;5.710;2023-05-20T10:10:16;19.50;99.90
18502;DHT22;68437;52.236;5.710;2023-05-20T10:12:54;19.60;99.90
18502;DHT22;68437;52.236;5.710;2023-05-20T10:15:27;19.50;99.90
18502;DHT22;68437;52.236;5.710;2023-05-20T10:18:02;19.20;99.90
18502;DHT22;68437;52.236;5.710;2023-05-20T10:20:31;19.10;99.90
18502;DHT22;68437;52.236;5.710;2023-05-20T10:22:58;19.10;99.90
18502;DHT22;68437;52.236;5.710;2023-05-20T10:25:27;19.10;99.90
18502;DHT22;68437;52.236;5.710;2023-05-20T10:28:07;19.40;99.90
18502;DHT22;68437;52.236;5.710;2023-05-20T10:30:34;19.60;99.90
18502;DHT22;68437;52.236;5.710;2023-05-20T10:33:05;19.70;99.90
18502;DHT22;68437;52.236;5.710;2023-05-20T10:35:32;20.00;99.90
18502;DHT22;68437;52.236;5.710;2023-05-20T10:38:09;20.30;99.90
18502;DHT22;68437;52.236;5.710;2023-05-20T10:40:38;20.60;99.90
18502;DHT22;68437;52.236;5.710;2023-05-20T10:43:08;20.20;99.90
18502;DHT22;68437;52.236;5.710;2023-05-20T10:45:47;19.60;99.90
18502;DHT22;68437;52.236;5.710;2023-05-20T10:48:25;19.70;99.90
18502;DHT22;68437;52.236;5.710;2023-05-20T10:50:59;19.70;99.90
18502;DHT22;68437;52.236;5.710;2023-05-20T10:53:39;20.40;99.90
18502;DHT22;68437;52.236;5.710;2023-05-20T10:56:15;20.80;99.90
18502;DHT22;68437;52.236;5.710;2023-05-20T10:58:43;20.80;99.90
18502;DHT22;68437;52.236;5.710;2023-05-20T11:01:10;21.30;99.90
18502;DHT22;68437;52.236;5.710;2023-05-20T11:03:39;21.60;99.90
18502;DHT22;68437;52.236;5.710;2023-05-20T11:06:13;21.40;99.90
18502;DHT22;68437;52.236;5.710;2023-05-20T11:08:40;21.60;99.90
18502;DHT22;68437;52.236;5.710;2023-05-20T11:11:07;21.30;99.90
18502;DHT22;68437;52.236;5.710;2023-05-20T11:13:35;21.20;99.90
18502;DHT22;68437;52.236;5.710;2023-05-20T11:16:03;21.60;99.90
18502;DHT22;68437;52.236;5.710;2023-05-20T11:18:30;21.70;99.90
18502;DHT22;68437;52.236;5.710;2023-05-20T11:20:57;21.50;99.90
18502;DHT22;68437;52.236;5.710;2023-05-20T11:23:25;21.30;99.90
18502;DHT22;68437;52.236;5.710;2023-05-20T11:25:53;21.10;99.90
18502;DHT22;68437;52.236;5.710;2023-05-20T11:28:21;20.50;99.90
18502;DHT22;68437;52.236;5.710;2023-05-20T11:30:51;20.10;99.90
18502;DHT22;68437;52.236;5.710;2023-05-20T11:33:18;19.80;99.90
18502;DHT22;68437;52.236;5.710;2023-05-20T11:35:47;19.90;99.90
18502;DHT22;68437;52.236;5.710;2023-05-20T11:38:17;20.50;99.90
18502;DHT22;68437;52.236;5.710;2023-05-20T11:40:51;20.40;99.90
18502;DHT22;68437;52.236;5.710;2023-05-20T11:43:19;20.10;99.90
18502;DHT22;68437;52.236;5.710;2023-05-20T11:45:47;20.30;99.90
18502;DHT22;68437;52.236;5.710;2023-05-20T11:48:19;20.30;99.90
18502;DHT22;68437;52.236;5.710;2023-05-20T11:50:49;20.70;99.90
18502;DHT22;68437;52.236;5.710;2023-05-20T11:53:19;21.20;99.90
18502;DHT22;68437;52.236;5.710;2023-05-20T11:55:48;21.30;99.90
18502;DHT22;68437;52.236;5.710;2023-05-20T11:58:17;21.30;99.90
18502;DHT22;68437;52.236;5.710;2023-05-20T12:00:44;21.10;99.90
18502;DHT22;68437;52.236;5.710;2023-05-20T12:03:11;21.20;99.90
18502;DHT22;68437;52.236;5.710;2023-05-20T12:05:39;21.40;99.90
18502;DHT22;68437;52.236;5.710;2023-05-20T12:08:06;21.90;99.90
18502;DHT22;68437;52.236;5.710;2023-05-20T12:10:33;22.10;99.90
18502;DHT22;68437;52.236;5.710;2023-05-20T12:13:02;22.40;99.90
18502;DHT22;68437;52.236;5.710;2023-05-20T12:15:29;22.30;99.90
18502;DHT22;68437;52.236;5.710;2023-05-20T12:17:56;22.20;99.90
18502;DHT22;68437;52.236;5.710;2023-05-20T12:20:23;22.00;99.90
18502;DHT22;68437;52.236;5.710;2023-05-20T12:22:52;22.00;99.90
18502;DHT22;68437;52.236;5.710;2023-05-20T12:25:19;22.10;99.90
18502;DHT22;68437;52.236;5.710;2023-05-20T12:27:47;22.10;99.90
18502;DHT22;68437;52.236;5.710;2023-05-20T12:30:17;22.30;99.90
18502;DHT22;68437;52.236;5.710;2023-05-20T12:32:45;22.70;99.90
18502;DHT22;68437;52.236;5.710;2023-05-20T12:35:12;23.10;99.90
18502;DHT22;68437;52.236;5.710;2023-05-20T12:37:40;22.80;99.90
18502;DHT22;68437;52.236;5.710;2023-05-20T12:40:10;22.30;99.90
18502;DHT22;68437;52.236;5.710;2023-05-20T12:42:37;21.70;99.90
18502;DHT22;68437;52.236;5.710;2023-05-20T12:45:06;21.20;99.90
18502;DHT22;68437;52.236;5.710;2023-05-20T12:47:33;21.10;99.90
18502;DHT22;68437;52.236;5.710;2023-05-20T12:50:01;21.10;99.90
18502;DHT22;68437;52.236;5.710;2023-05-20T12:52:28;21.20;99.90
18502;DHT22;68437;52.236;5.710;2023-05-20T12:54:55;21.20;99.90
18502;DHT22;68437;52.236;5.710;2023-05-20T12:57:24;21.40;99.90
18502;DHT22;68437;52.236;5.710;2023-05-20T12:59:51;21.30;99.90
18502;DHT22;68437;52.236;5.710;2023-05-20T13:02:18;21.10;99.90
18502;DHT22;68437;52.236;5.710;2023-05-20T13:04:45;21.00;99.90
18502;DHT22;68437;52.236;5.710;2023-05-20T13:07:11;21.20;99.90
18502;DHT22;68437;52.236;5.710;2023-05-20T13:09:38;21.40;99.90
18502;DHT22;68437;52.236;5.710;2023-05-20T13:12:06;21.40;99.90
18502;DHT22;68437;52.236;5.710;2023-05-20T13:14:34;21.20;99.90
18502;DHT22;68437;52.236;5.710;2023-05-20T13:17:01;21.00;99.90
18502;DHT22;68437;52.236;5.710;2023-05-20T13:19:28;20.90;99.90
18502;DHT22;68437;52.236;5.710;2023-05-20T13:21:55;21.10;99.90
18502;DHT22;68437;52.236;5.710;2023-05-20T13:24:25;21.60;99.90
18502;DHT22;68437;52.236;5.710;2023-05-20T13:26:52;21.90;99.90
18502;DHT22;68437;52.236;5.710;2023-05-20T13:29:18;21.80;99.90
18502;DHT22;68437;52.236;5.710;2023-05-20T13:31:47;21.60;99.90
18502;DHT22;68437;52.236;5.710;2023-05-20T13:34:14;21.30;99.90
18502;DHT22;68437;52.236;5.710;2023-05-20T13:36:41;21.10;99.90
18502;DHT22;68437;52.236;5.710;2023-05-20T13:39:08;21.10;99.90
18502;DHT22;68437;52.236;5.710;2023-05-20T13:41:34;21.30;99.90
18502;DHT22;68437;52.236;5.710;2023-05-20T13:44:01;21.50;99.90
18502;DHT22;68437;52.236;5.710;2023-05-20T13:46:29;21.60;99.90
18502;DHT22;68437;52.236;5.710;2023-05-20T13:48:57;21.50;99.90
18502;DHT22;68437;52.236;5.710;2023-05-20T13:51:24;21.30;99.90
18502;DHT22;68437;52.236;5.710;2023-05-20T13:53:53;21.20;99.90
18502;DHT22;68437;52.236;5.710;2023-05-20T13:56:19;21.20;99.90
18502;DHT22;68437;52.236;5.710;2023-05-20T13:58:46;21.40;99.90
18502;DHT22;68437;52.236;5.710;2023-05-20T14:01:13;21.30;99.90
18502;DHT22;68437;52.236;5.710;2023-05-20T14:03:40;21.10;99.90
18502;DHT22;68437;52.236;5.710;2023-05-20T14:06:08;21.20;99.90
18502;DHT22;68437;52.236;5.710;2023-05-20T14:08:35;21.50;99.90
18502;DHT22;68437;52.236;5.710;2023-05-20T14:11:03;21.50;99.90
18502;DHT22;68437;52.236;5.710;2023-05-20T14:13:30;21.30;99.90
18502;DHT22;68437;52.236;5.710;2023-05-20T14:15:57;21.20;99.90
18502;DHT22;68437;52.236;5.710;2023-05-20T14:18:26;21.30;99.90
18502;DHT22;68437;52.236;5.710;2023-05-20T14:20:53;21.50;99.90
18502;DHT22;68437;52.236;5.710;2023-05-20T14:23:22;21.80;99.90
18502;DHT22;68437;52.236;5.710;2023-05-20T14:25:49;21.90;99.90
18502;DHT22;68437;52.236;5.710;2023-05-20T14:28:15;21.70;99.90
18502;DHT22;68437;52.236;5.710;2023-05-20T14:30:42;21.30;99.90
18502;DHT22;68437;52.236;5.710;2023-05-20T14:33:09;21.00;99.90
18502;DHT22;68437;52.236;5.710;2023-05-20T14:35:36;20.90;99.90
18502;DHT22;68437;52.236;5.710;2023-05-20T14:38:02;20.90;99.90
18502;DHT22;68437;52.236;5.710;2023-05-20T14:40:31;21.10;99.90
18502;DHT22;68437;52.236;5.710;2023-05-20T14:42:57;21.20;99.90
18502;DHT22;68437;52.236;5.710;2023-05-20T14:45:24;21.30;99.90
18502;DHT22;68437;52.236;5.710;2023-05-20T14:47:51;21.40;99.90
18502;DHT22;68437;52.236;5.710;2023-05-20T14:50:18;21.40;99.90
18502;DHT22;68437;52.236;5.710;2023-05-20T14:52:46;21.60;99.90
18502;DHT22;68437;52.236;5.710;2023-05-20T14:55:13;21.60;99.90
18502;DHT22;68437;52.236;5.710;2023-05-20T14:57:42;21.60;99.90
18502;DHT22;68437;52.236;5.710;2023-05-20T15:00:10;21.80;99.90
18502;DHT22;68437;52.236;5.710;2023-05-20T15:02:37;21.90;99.90
18502;DHT22;68437;52.236;5.710;2023-05-20T15:05:04;21.90;99.90
18502;DHT22;68437;52.236;5.710;2023-05-20T15:07:34;21.30;99.90
18502;DHT22;68437;52.236;5.710;2023-05-20T15:10:04;20.90;99.90
18502;DHT22;68437;52.236;5.710;2023-05-20T15:12:32;20.60;99.90
18502;DHT22;68437;52.236;5.710;2023-05-20T15:15:00;20.40;99.90
18502;DHT22;68437;52.236;5.710;2023-05-20T15:17:27;20.40;99.90
18502;DHT22;68437;52.236;5.710;2023-05-20T15:19:54;20.40;99.90
18502;DHT22;68437;52.236;5.710;2023-05-20T15:22:21;20.20;99.90
18502;DHT22;68437;52.236;5.710;2023-05-20T15:24:48;20.30;99.90
18502;DHT22;68437;52.236;5.710;2023-05-20T15:27:14;20.30;99.90
18502;DHT22;68437;52.236;5.710;2023-05-20T15:29:41;20.40;99.90
18502;DHT22;68437;52.236;5.710;2023-05-20T15:32:09;20.50;99.90
18502;DHT22;68437;52.236;5.710;2023-05-20T15:34:36;20.60;99.90